Time;durP1;ratioP1;P1;durP2;ratioP2;P2;SDS_P1;SDS_P2;PMS_P1;PMS_P2;Temp;Humidity;BMP_temperature;BMP_pressure;BME280_temperature;BME280_humidity;BME280_pressure;Samples;Min_cycle;Max_cycle;Signal;HPM_P1;HPM_P2
2023/09/10 00:01:03;;;;;;;7.97;6.53;;;22.60;82.90;;;;;;7396706;19;19924;-72
2023/09/10 00:03:29;;;;;;;8.30;6.93;;;22.40;83.10;;;;;;7395225;19;20708;-72
2023/09/10 00:05:55;;;;;;;7.95;6.00;;;22.40;83.40;;;;;;7396017;19;20313;-72
2023/09/10 00:08:20;;;;;;;8.63;6.38;;;22.40;83.70;;;;;;7393949;19;19926;-72
2023/09/10 00:10:48;;;;;;;8.63;6.47;;;22.40;83.70;;;;;;7396178;19;19928;-73
2023/09/10 00:13:14;;;;;;;8.18;6.30;;;22.40;83.80;;;;;;7397521;19;19955;-73
2023/09/10 00:15:40;;;;;;;9.32;6.43;;;22.30;84.40;;;;;;7405774;19;19918;-73
2023/09/10 00:18:06;;;;;;;7.82;6.45;;;22.20;85.00;;;;;;7400760;19;20251;-73
2023/09/10 00:20:32;;;;;;;8.13;6.45;;;22.20;86.10;;;;;;7404347;19;19938;-72
2023/09/10 00:22:58;;;;;;;8.80;6.82;;;22.10;86.50;;;;;;7403635;19;19915;-72
2023/09/10 00:25:24;;;;;;;7.50;6.50;;;22.10;86.90;;;;;;7400867;19;19922;-73
2023/09/10 00:27:49;;;;;;;10.02;6.95;;;22.10;87.30;;;;;;7402674;19;19911;-71
2023/09/10 00:30:15;;;;;;;7.82;6.55;;;22.10;87.50;;;;;;7400663;19;19938;-72
2023/09/10 00:32:41;;;;;;;10.60;7.40;;;22.10;87.80;;;;;;7403866;19;19915;-72
2023/09/10 00:35:08;;;;;;;9.65;7.18;;;22.10;88.30;;;;;;7397964;19;19926;-72
2023/09/10 00:37:34;;;;;;;9.38;8.05;;;22.10;88.30;;;;;;7401922;19;20015;-73
2023/09/10 00:39:59;;;;;;;10.93;7.30;;;22.00;89.30;;;;;;7399783;19;19923;-72
2023/09/10 00:42:26;;;;;;;9.52;7.65;;;22.00;89.70;;;;;;7402312;19;19915;-72
2023/09/10 00:44:51;;;;;;;10.32;7.30;;;22.00;89.90;;;;;;7400815;19;20590;-72
2023/09/10 00:47:17;;;;;;;9.63;7.55;;;22.00;90.00;;;;;;7400600;19;19919;-72
2023/09/10 00:49:44;;;;;;;10.77;8.10;;;22.10;90.10;;;;;;7400322;19;19946;-72
2023/09/10 00:52:10;;;;;;;;;;;22.10;90.20;;;;;;7382404;19;19934;-73
2023/09/10 00:54:36;;;;;;;10.20;7.68;;;22.10;90.40;;;;;;7400261;19;19954;-73
2023/09/10 00:57:03;;;;;;;9.52;7.55;;;22.00;91.00;;;;;;7403742;19;19925;-72
2023/09/10 00:59:30;;;;;;;9.68;7.60;;;22.00;91.50;;;;;;7401463;19;19910;-73
2023/09/10 01:01:57;;;;;;;9.05;7.63;;;21.90;91.70;;;;;;7401361;19;19915;-71
2023/09/10 01:04:23;;;;;;;8.45;6.78;;;21.90;91.70;;;;;;7398093;19;20108;-73
2023/09/10 01:06:52;;;;;;;9.52;8.52;;;21.90;91.80;;;;;;7404118;19;19988;-72
2023/09/10 01:09:18;;;;;;;9.95;7.47;;;22.00;91.90;;;;;;7366142;19;19914;-73
2023/09/10 01:11:55;;;;;;;8.77;7.38;;;21.90;92.20;;;;;;7403282;19;19915;-73
2023/09/10 01:14:35;;;;;;;9.52;7.28;;;21.90;92.30;;;;;;7399295;19;20316;-72
2023/09/10 01:17:30;;;;;;;9.35;7.22;;;21.90;92.60;;;;;;7400745;19;20303;-73
2023/09/10 01:20:21;;;;;;;10.32;7.65;;;21.80;92.80;;;;;;7396872;19;19914;-72
2023/09/10 01:23:03;;;;;;;9.70;7.47;;;21.80;93.10;;;;;;7399887;19;19923;-73
2023/09/10 01:25:30;;;;;;;8.52;6.57;;;21.80;93.30;;;;;;7398183;19;19918;-72
2023/09/10 01:27:56;;;;;;;8.25;7.07;;;21.80;93.50;;;;;;7402315;19;19910;-73
2023/09/10 01:30:22;;;;;;;9.30;7.57;;;21.80;93.90;;;;;;7399724;19;19946;-72
2023/09/10 01:33:02;;;;;;;9.07;6.70;;;21.80;93.80;;;;;;7399993;19;20270;-72
2023/09/10 01:35:51;;;;;;;8.93;7.30;;;21.80;93.90;;;;;;7402585;19;20264;-73
2023/09/10 01:38:33;;;;;;;9.25;7.82;;;21.90;93.80;;;;;;7366612;19;19929;-72
2023/09/10 01:41:22;;;;;;;7.72;6.40;;;21.90;93.60;;;;;;7401784;19;19911;-72
2023/09/10 01:43:50;;;;;;;9.18;7.10;;;21.90;93.80;;;;;;7398585;19;19915;-72
2023/09/10 01:46:16;;;;;;;9.23;6.63;;;21.90;94.00;;;;;;7398553;19;19922;-72
2023/09/10 01:48:43;;;;;;;9.38;7.25;;;21.90;94.20;;;;;;7401387;19;20343;-72
2023/09/10 01:51:09;;;;;;;7.95;6.93;;;21.90;94.40;;;;;;7397866;19;19918;-72
2023/09/10 01:53:34;;;;;;;7.97;7.05;;;21.80;94.50;;;;;;7403077;19;19930;-72
2023/09/10 01:56:00;;;;;;;8.95;7.45;;;21.90;94.50;;;;;;7401111;19;19926;-72
2023/09/10 01:58:26;;;;;;;8.88;7.78;;;21.80;94.70;;;;;;7400112;19;19940;-71
2023/09/10 02:00:52;;;;;;;9.57;6.93;;;21.80;94.90;;;;;;7370452;19;19946;-72
2023/09/10 02:03:18;;;;;;;10.93;7.43;;;21.80;95.00;;;;;;7400298;19;19986;-71
2023/09/10 02:05:43;;;;;;;10.93;7.72;;;21.90;95.00;;;;;;7403460;19;19955;-72
2023/09/10 02:08:09;;;;;;;10.23;7.63;;;21.80;95.10;;;;;;7398382;19;19923;-71
2023/09/10 02:10:36;;;;;;;10.35;7.38;;;21.80;95.30;;;;;;7402142;19;20367;-72
2023/09/10 02:13:03;;;;;;;10.82;8.25;;;21.80;95.50;;;;;;7399808;19;19925;-71
2023/09/10 02:15:29;;;;;;;11.82;9.23;;;21.80;95.60;;;;;;7401701;19;19910;-72
2023/09/10 02:17:55;;;;;;;12.38;8.88;;;21.80;95.70;;;;;;7401045;19;19930;-72
2023/09/10 02:20:21;;;;;;;12.13;8.18;;;21.80;95.70;;;;;;7398893;19;19918;-71
2023/09/10 02:22:47;;;;;;;11.30;8.52;;;21.80;95.70;;;;;;7398850;19;20324;-72
2023/09/10 02:25:13;;;;;;;9.27;8.05;;;21.80;95.70;;;;;;7398522;19;19929;-72
2023/09/10 02:27:39;;;;;;;11.57;8.75;;;21.80;95.70;;;;;;7402853;19;19919;-71
2023/09/10 02:30:07;;;;;;;11.70;8.20;;;21.80;95.60;;;;;;7397967;19;19925;-72
2023/09/10 02:32:33;;;;;;;10.85;9.05;;;21.90;95.60;;;;;;7398314;19;19923;-72
2023/09/10 02:34:59;;;;;;;11.68;9.13;;;21.90;95.60;;;;;;7376685;19;19911;-71
2023/09/10 02:37:25;;;;;;;9.63;8.35;;;22.00;95.30;;;;;;7395580;19;19910;-72
2023/09/10 02:39:51;;;;;;;10.30;8.48;;;22.00;95.30;;;;;;7398893;19;19986;-71
2023/09/10 02:42:17;;;;;;;10.50;8.95;;;21.90;95.30;;;;;;7400940;19;19911;-71
2023/09/10 02:44:43;;;;;;;11.32;9.52;;;22.00;95.60;;;;;;7397088;19;19930;-70
2023/09/10 02:47:09;;;;;;;9.93;8.13;;;22.00;95.50;;;;;;7399706;19;20236;-70
2023/09/10 02:49:35;;;;;;;10.75;9.13;;;21.90;95.60;;;;;;7391860;19;19915;-71
2023/09/10 02:52:01;;;;;;;9.77;8.68;;;21.90;95.70;;;;;;7397734;19;20023;-71
2023/09/10 02:54:28;;;;;;;11.77;9.23;;;22.00;95.70;;;;;;7397750;19;20235;-72
2023/09/10 02:56:54;;;;;;;13.60;8.75;;;22.00;95.80;;;;;;7400983;19;19914;-71
2023/09/10 02:59:27;;;;;;;10.93;8.95;;;22.00;95.80;;;;;;7395969;19;20014;-71
2023/09/10 03:01:53;;;;;;;11.70;9.75;;;22.00;95.90;;;;;;7399061;19;19974;-71
2023/09/10 03:04:20;;;;;;;10.98;8.93;;;22.00;95.90;;;;;;7397738;19;19914;-72
2023/09/10 03:06:47;;;;;;;10.73;8.38;;;22.00;95.80;;;;;;7396888;19;19926;-72
2023/09/10 03:09:14;;;;;;;9.75;8.43;;;22.00;95.90;;;;;;7394654;19;19934;-71
2023/09/10 03:11:41;;;;;;;10.27;8.32;;;21.90;96.10;;;;;;7399806;19;19918;-71
2023/09/10 03:14:08;;;;;;;9.45;7.80;;;21.90;96.10;;;;;;7365972;19;19915;-71
2023/09/10 03:16:34;;;;;;;;;;;22.00;96.10;;;;;;7401715;19;20002;-71
2023/09/10 03:19:00;;;;;;;7.82;6.43;;;21.90;96.10;;;;;;7397222;19;20341;-72
2023/09/10 03:21:27;;;;;;;8.65;7.22;;;22.00;96.20;;;;;;7397104;19;19960;-72
2023/09/10 03:23:53;;;;;;;8.20;7.18;;;22.00;95.90;;;;;;7398807;19;20620;-72
2023/09/10 03:26:19;;;;;;;8.75;6.85;;;22.00;95.80;;;;;;7398448;19;20117;-71
2023/09/10 03:28:45;;;;;;;8.77;6.90;;;21.90;95.80;;;;;;7399392;19;19949;-71
2023/09/10 03:31:11;;;;;;;11.00;7.43;;;21.90;95.80;;;;;;7397035;19;20466;-71
2023/09/10 03:33:37;;;;;;;9.20;7.28;;;21.90;95.80;;;;;;7399560;19;19918;-72
2023/09/10 03:36:03;;;;;;;9.10;7.30;;;21.90;95.80;;;;;;7393886;19;19922;-71
2023/09/10 03:38:29;;;;;;;8.45;6.63;;;21.90;96.00;;;;;;7398334;19;19920;-72
2023/09/10 03:40:55;;;;;;;7.60;6.40;;;21.80;96.10;;;;;;7395084;19;19940;-72
2023/09/10 03:43:21;;;;;;;8.25;7.35;;;21.80;96.10;;;;;;7397959;19;19918;-72
2023/09/10 03:45:46;;;;;;;9.00;7.07;;;21.90;96.20;;;;;;7394792;19;19926;-72
2023/09/10 03:48:13;;;;;;;10.10;7.90;;;21.80;96.30;;;;;;7398228;19;19922;-72
2023/09/10 03:50:39;;;;;;;10.20;7.35;;;21.80;96.50;;;;;;7398745;19;19922;-72
2023/09/10 03:53:05;;;;;;;10.45;7.50;;;21.70;96.70;;;;;;7380812;19;19914;-73
2023/09/10 03:55:31;;;;;;;8.77;7.40;;;21.70;97.00;;;;;;7405702;19;20663;-72
2023/09/10 03:57:56;;;;;;;8.57;7.43;;;21.70;96.90;;;;;;7405186;19;19914;-72
2023/09/10 04:00:22;;;;;;;9.75;8.10;;;21.70;96.90;;;;;;7404268;19;19934;-72
2023/09/10 04:02:48;;;;;;;10.77;6.38;;;21.60;96.90;;;;;;7406428;19;20425;-72
2023/09/10 04:05:14;;;;;;;9.80;7.00;;;21.60;96.90;;;;;;7402027;19;19936;-72
2023/09/10 04:07:40;;;;;;;8.25;6.50;;;21.60;96.90;;;;;;7405672;19;19922;-72
2023/09/10 04:10:07;;;;;;;7.65;5.75;;;21.70;96.80;;;;;;7403372;19;20342;-71
2023/09/10 04:12:34;;;;;;;10.07;7.57;;;21.70;96.70;;;;;;7403801;19;20288;-72
2023/09/10 04:15:00;;;;;;;10.00;7.90;;;21.70;96.50;;;;;;7404214;19;19919;-71
2023/09/10 04:17:28;;;;;;;7.90;6.80;;;21.60;96.40;;;;;;7402696;19;19925;-72
2023/09/10 04:19:54;;;;;;;8.70;7.68;;;21.60;96.40;;;;;;7371975;19;19918;-71
2023/09/10 04:22:21;;;;;;;9.18;7.03;;;21.60;96.50;;;;;;7403034;19;19946;-72
2023/09/10 04:24:46;;;;;;;9.43;7.15;;;21.60;96.60;;;;;;7400408;19;19935;-72
2023/09/10 04:27:12;;;;;;;8.18;6.88;;;21.60;96.80;;;;;;7403796;19;19916;-72
2023/09/10 04:29:40;;;;;;;9.77;7.90;;;21.60;96.70;;;;;;7402784;19;20007;-71
2023/09/10 04:32:05;;;;;;;10.23;8.07;;;21.50;96.70;;;;;;7399904;19;20341;-72
2023/09/10 04:34:31;;;;;;;9.63;7.75;;;21.50;96.80;;;;;;7404896;19;19914;-71
2023/09/10 04:36:57;;;;;;;8.98;7.05;;;21.50;96.70;;;;;;7403989;19;19913;-72
2023/09/10 04:39:23;;;;;;;35.47;29.50;;;21.50;96.90;;;;;;7401613;19;19919;-72
2023/09/10 04:41:49;;;;;;;100.78;69.18;;;21.50;96.90;;;;;;7401637;19;20279;-72
2023/09/10 04:44:16;;;;;;;9.90;8.85;;;21.50;96.90;;;;;;7401533;19;19922;-72
2023/09/10 04:46:42;;;;;;;8.77;7.05;;;21.50;96.90;;;;;;7404707;19;19919;-73
2023/09/10 04:49:08;;;;;;;8.77;7.40;;;21.50;97.00;;;;;;7401990;19;20647;-72
2023/09/10 04:51:33;;;;;;;8.95;7.95;;;21.50;96.90;;;;;;7380455;19;19994;-72
2023/09/10 04:53:59;;;;;;;9.05;7.45;;;21.50;96.80;;;;;;7402475;19;19918;-72
2023/09/10 04:56:25;;;;;;;9.15;6.95;;;21.40;97.10;;;;;;7402898;19;20015;-72
2023/09/10 04:58:51;;;;;;;9.63;7.50;;;21.40;96.80;;;;;;7403869;19;19937;-72
2023/09/10 05:01:17;;;;;;;9.63;7.88;;;21.40;96.80;;;;;;7400625;19;19948;-72
2023/09/10 05:03:43;;;;;;;10.95;8.07;;;21.40;96.80;;;;;;7401553;19;19911;-71
2023/09/10 05:06:09;;;;;;;10.40;8.52;;;21.40;97.00;;;;;;7403696;19;19931;-72
2023/09/10 05:08:35;;;;;;;10.13;7.88;;;21.30;97.00;;;;;;7402111;19;20341;-71
2023/09/10 05:11:02;;;;;;;9.70;7.80;;;21.30;97.20;;;;;;7403757;19;19914;-72
2023/09/10 05:13:28;;;;;;;9.23;7.43;;;21.30;97.10;;;;;;7402583;19;19930;-73
2023/09/10 05:15:54;;;;;;;10.02;8.10;;;21.30;96.90;;;;;;7402712;19;19919;-72
2023/09/10 05:18:21;;;;;;;10.57;9.40;;;21.30;96.70;;;;;;7369485;19;19966;-72
2023/09/10 05:20:52;;;;;;;12.07;8.88;;;21.30;96.50;;;;;;7401616;19;19918;-72
2023/09/10 05:23:22;;;;;;;12.25;9.05;;;21.20;96.40;;;;;;7368746;19;19930;-71
2023/09/10 05:25:48;;;;;;;14.30;9.93;;;21.20;96.20;;;;;;7402571;19;19970;-72
2023/09/10 05:28:15;;;;;;;11.40;9.02;;;21.20;96.20;;;;;;7399898;19;20253;-73
2023/09/10 05:30:41;;;;;;;12.30;9.93;;;21.20;96.20;;;;;;7402704;19;19932;-71
2023/09/10 05:33:06;;;;;;;14.63;11.75;;;21.20;96.10;;;;;;7399650;19;19915;-72
2023/09/10 05:35:32;;;;;;;13.02;10.43;;;21.20;96.10;;;;;;7403544;19;19911;-72
2023/09/10 05:37:58;;;;;;;14.60;10.40;;;21.30;95.90;;;;;;7370784;19;20263;-71
2023/09/10 05:40:25;;;;;;;31.80;23.67;;;21.20;95.90;;;;;;7401591;19;19943;-71
2023/09/10 05:42:50;;;;;;;;;;;21.30;95.80;;;;;;7370885;19;19934;-71
2023/09/10 05:45:16;;;;;;;14.75;11.75;;;21.30;95.70;;;;;;7399614;19;19942;-71
2023/09/10 05:47:42;;;;;;;15.38;11.15;;;21.30;95.70;;;;;;7401696;19;19970;-73
2023/09/10 05:50:08;;;;;;;16.08;11.20;;;21.20;95.50;;;;;;7399401;19;19974;-72
2023/09/10 05:52:34;;;;;;;15.45;11.50;;;21.30;95.50;;;;;;7400417;19;19926;-73
2023/09/10 05:55:00;;;;;;;15.52;10.77;;;21.30;95.30;;;;;;7403577;19;19944;-74
2023/09/10 05:57:26;;;;;;;12.70;9.85;;;21.40;95.20;;;;;;7399613;19;19938;-73
2023/09/10 05:59:51;;;;;;;16.20;10.23;;;21.40;95.10;;;;;;7400568;19;19949;-73
2023/09/10 06:02:17;;;;;;;15.40;11.10;;;21.40;94.80;;;;;;7399180;19;19925;-72
2023/09/10 06:04:43;;;;;;;13.32;10.75;;;21.40;94.70;;;;;;7403548;19;19927;-73
2023/09/10 06:07:09;;;;;;;14.48;11.25;;;21.50;94.60;;;;;;7400019;19;19990;-72
2023/09/10 06:09:34;;;;;;;13.18;9.70;;;21.50;94.50;;;;;;7400532;19;19954;-72
2023/09/10 06:12:03;;;;;;;13.88;11.20;;;21.60;94.40;;;;;;7401721;19;19921;-73
2023/09/10 06:14:30;;;;;;;12.10;10.10;;;21.60;94.10;;;;;;7398744;19;19922;-72
2023/09/10 06:16:57;;;;;;;12.55;10.90;;;21.70;93.90;;;;;;7401224;19;19918;-73
2023/09/10 06:19:22;;;;;;;15.65;10.57;;;21.80;93.60;;;;;;7400425;19;19927;-73
2023/09/10 06:21:48;;;;;;;12.70;10.63;;;21.90;93.30;;;;;;7403385;19;19923;-72
2023/09/10 06:24:14;;;;;;;13.98;11.57;;;21.90;93.10;;;;;;7400107;19;19940;-72
2023/09/10 06:26:41;;;;;;;13.68;11.77;;;22.00;92.90;;;;;;7401574;19;19947;-72
2023/09/10 06:29:06;;;;;;;13.55;11.60;;;22.00;92.70;;;;;;7397527;19;19926;-72
2023/09/10 06:31:32;;;;;;;14.07;11.07;;;22.10;92.60;;;;;;7402487;19;19965;-73
2023/09/10 06:34:04;;;;;;;15.88;11.57;;;22.10;92.40;;;;;;7400961;19;19926;-72
2023/09/10 06:36:31;;;;;;;;;;;22.20;92.10;;;;;;7403025;19;19919;-72
2023/09/10 06:38:57;;;;;;;15.25;11.07;;;22.30;91.90;;;;;;7400450;19;19948;-72
2023/09/10 06:41:22;;;;;;;13.85;12.05;;;22.30;91.60;;;;;;7400043;19;19931;-73
2023/09/10 06:43:48;;;;;;;14.60;11.27;;;22.40;91.50;;;;;;7398959;19;20339;-73
2023/09/10 06:46:14;;;;;;;15.35;12.18;;;22.40;91.40;;;;;;7397327;19;19928;-72
2023/09/10 06:48:40;;;;;;;18.60;13.05;;;22.40;91.20;;;;;;7401075;19;19950;-73
2023/09/10 06:51:05;;;;;;;19.42;14.35;;;22.50;90.90;;;;;;7397013;19;19910;-73
2023/09/10 06:53:31;;;;;;;17.20;13.68;;;22.50;90.70;;;;;;7401721;19;19914;-73
2023/09/10 06:55:57;;;;;;;16.17;13.90;;;22.50;90.50;;;;;;7401323;19;19918;-73
2023/09/10 06:58:23;;;;;;;15.98;14.13;;;22.60;90.30;;;;;;7399657;19;19955;-73
2023/09/10 07:00:49;;;;;;;16.23;12.77;;;22.60;90.10;;;;;;7401116;19;19915;-73
2023/09/10 07:03:16;;;;;;;16.00;13.73;;;22.70;89.80;;;;;;7399518;19;19918;-74
2023/09/10 07:05:43;;;;;;;17.98;14.40;;;22.80;89.60;;;;;;7398795;19;20779;-74
2023/09/10 07:08:12;;;;;;;16.48;13.18;;;22.90;89.00;;;;;;7398475;19;19934;-74
2023/09/10 07:10:38;;;;;;;16.20;12.70;;;22.90;88.30;;;;;;7396784;19;20270;-73
2023/09/10 07:13:05;;;;;;;15.02;13.10;;;23.00;87.60;;;;;;7395961;19;19914;-73
2023/09/10 07:15:34;;;;;;;15.65;12.55;;;23.10;87.10;;;;;;7395632;19;19935;-73
2023/09/10 07:18:00;;;;;;;16.35;13.35;;;23.10;86.40;;;;;;7399007;19;19985;-73
2023/09/10 07:20:27;;;;;;;14.57;10.82;;;23.20;85.90;;;;;;7365326;19;19922;-73
2023/09/10 07:22:54;;;;;;;15.20;11.50;;;23.20;85.50;;;;;;7398871;19;19911;-73
2023/09/10 07:25:19;;;;;;;13.93;12.27;;;23.30;85.20;;;;;;7397555;19;19954;-73
2023/09/10 07:27:45;;;;;;;13.55;11.13;;;23.40;84.60;;;;;;7399793;19;20259;-74
2023/09/10 07:30:12;;;;;;;14.98;12.60;;;23.40;84.40;;;;;;7375396;19;19910;-73
2023/09/10 07:32:38;;;;;;;14.70;11.90;;;23.40;83.80;;;;;;7396501;19;19922;-73
2023/09/10 07:35:04;;;;;;;15.45;11.85;;;23.50;83.80;;;;;;7399466;19;19910;-73
2023/09/10 07:37:30;;;;;;;15.05;11.95;;;23.60;83.50;;;;;;7396261;19;19922;-73
2023/09/10 07:39:56;;;;;;;12.95;11.55;;;23.70;82.90;;;;;;7399002;19;19977;-74
2023/09/10 07:42:22;;;;;;;13.57;11.77;;;23.70;82.70;;;;;;7396533;19;20065;-74
2023/09/10 07:44:47;;;;;;;16.77;12.77;;;23.80;81.80;;;;;;7401236;19;19921;-73
2023/09/10 07:47:13;;;;;;;14.70;12.48;;;23.90;81.10;;;;;;7398659;19;19932;-74
2023/09/10 07:49:39;;;;;;;14.25;11.88;;;24.00;80.80;;;;;;7397385;19;19918;-72
2023/09/10 07:52:05;;;;;;;14.13;11.55;;;24.10;80.40;;;;;;7396451;19;19914;-72
2023/09/10 07:54:31;;;;;;;13.07;11.25;;;24.20;79.80;;;;;;7398193;19;20270;-73
2023/09/10 07:56:57;;;;;;;;;;;24.20;79.40;;;;;;7389931;19;21604;-73
2023/09/10 07:59:23;;;;;;;18.08;11.95;;;24.30;78.70;;;;;;7373283;19;19935;-73
2023/09/10 08:01:49;;;;;;;16.20;10.82;;;24.30;78.00;;;;;;7399343;19;19952;-73
2023/09/10 08:04:15;;;;;;;14.45;11.95;;;24.50;77.50;;;;;;7391668;19;19934;-75
2023/09/10 08:06:41;;;;;;;15.20;12.05;;;24.40;77.10;;;;;;7397268;19;19922;-73
2023/09/10 08:09:07;;;;;;;15.07;12.18;;;24.50;77.00;;;;;;7396439;19;20341;-73
2023/09/10 08:11:33;;;;;;;18.02;11.75;;;24.50;76.60;;;;;;7395468;19;20605;-73
2023/09/10 08:13:59;;;;;;;15.18;11.82;;;24.60;76.60;;;;;;7400537;19;19911;-74
2023/09/10 08:16:25;;;;;;;12.90;11.32;;;24.70;76.20;;;;;;7363658;19;19919;-75
2023/09/10 08:18:51;;;;;;;13.73;10.93;;;24.80;75.60;;;;;;7392301;19;19917;-74
2023/09/10 08:21:17;;;;;;;11.73;10.00;;;24.80;75.20;;;;;;7394685;19;20347;-75
2023/09/10 08:23:44;;;;;;;14.10;9.80;;;24.80;74.90;;;;;;7397803;19;19918;-75
2023/09/10 08:26:11;;;;;;;12.10;9.95;;;24.90;74.80;;;;;;7395741;19;19915;-75
2023/09/10 08:28:37;;;;;;;12.20;9.07;;;25.10;73.90;;;;;;7398257;19;19922;-74
2023/09/10 08:31:03;;;;;;;12.15;9.05;;;25.20;73.50;;;;;;7395811;19;19919;-74
2023/09/10 08:33:29;;;;;;;11.65;8.90;;;25.20;73.20;;;;;;7396125;19;20324;-74
2023/09/10 08:35:55;;;;;;;12.90;8.55;;;25.30;72.80;;;;;;7402970;19;19915;-74
2023/09/10 08:38:21;;;;;;;10.88;8.52;;;25.30;72.40;;;;;;7401440;19;19915;-75
2023/09/10 08:41:03;;;;;;;;;;;25.40;71.50;;;;;;7399599;19;19946;-73
2023/09/10 08:43:44;;;;;;;10.48;8.10;;;25.50;71.00;;;;;;7394786;19;19917;-72
2023/09/10 08:46:10;;;;;;;10.35;7.30;;;25.70;70.10;;;;;;7402661;19;19929;-73
2023/09/10 08:48:42;;;;;;;9.82;7.40;;;25.90;68.60;;;;;;7394345;19;20709;-73
2023/09/10 08:51:12;;;;;;;10.00;7.43;;;26.00;68.00;;;;;;7400921;19;19923;-73
2023/09/10 08:53:43;;;;;;;13.77;8.73;;;26.20;67.10;;;;;;7402244;19;19923;-72
2023/09/10 08:56:09;;;;;;;10.40;5.72;;;26.30;66.10;;;;;;7399974;19;20672;-73
2023/09/10 08:58:37;;;;;;;9.38;7.72;;;26.50;64.30;;;;;;7402173;19;19922;-73
2023/09/10 09:01:04;;;;;;;7.30;6.38;;;26.50;63.00;;;;;;7400107;19;19918;-72
2023/09/10 09:03:32;;;;;;;8.00;6.15;;;26.50;61.90;;;;;;7403977;19;19918;-74
2023/09/10 09:06:02;;;;;;;7.97;6.28;;;26.40;61.80;;;;;;7402256;19;20529;-72
2023/09/10 09:08:30;;;;;;;8.48;6.68;;;26.60;61.50;;;;;;7403196;19;19926;-74
2023/09/10 09:11:05;;;;;;;9.85;6.63;;;26.70;60.00;;;;;;7401181;19;19918;-73
2023/09/10 09:13:37;;;;;;;7.55;6.00;;;26.90;59.00;;;;;;7402157;19;19921;-73
2023/09/10 09:16:04;;;;;;;7.80;6.15;;;27.10;57.20;;;;;;7402406;19;19950;-72
2023/09/10 09:18:31;;;;;;;8.27;5.63;;;27.30;56.70;;;;;;7402853;19;20250;-72
2023/09/10 09:21:02;;;;;;;8.18;6.10;;;27.30;56.70;;;;;;7404168;19;19923;-73
2023/09/10 09:23:31;;;;;;;8.25;7.15;;;27.30;56.10;;;;;;7402765;19;19919;-74
2023/09/10 09:25:57;;;;;;;9.82;7.00;;;27.40;57.50;;;;;;7382601;19;19948;-74
2023/09/10 09:28:25;;;;;;;9.68;6.97;;;27.40;59.40;;;;;;7403641;19;19938;-72
2023/09/10 09:30:52;;;;;;;11.10;8.48;;;27.60;59.30;;;;;;7405339;19;19922;-74
2023/09/10 09:33:17;;;;;;;;;;;27.60;59.30;;;;;;7406024;19;19918;-73
2023/09/10 09:35:46;;;;;;;10.93;8.25;;;27.60;59.30;;;;;;7403751;19;19925;-72
2023/09/10 09:38:15;;;;;;;8.48;7.32;;;27.40;58.50;;;;;;7402288;19;19918;-71
2023/09/10 09:40:44;;;;;;;9.80;8.40;;;27.50;58.00;;;;;;7402934;19;19922;-74
2023/09/10 09:43:11;;;;;;;10.55;8.07;;;27.40;59.50;;;;;;7400284;19;19926;-72
2023/09/10 09:45:38;;;;;;;11.15;9.35;;;27.40;60.60;;;;;;7400945;19;19922;-73
2023/09/10 09:48:04;;;;;;;;;;;27.50;60.50;;;;;;7405855;19;21909;-73
2023/09/10 09:50:30;;;;;;;11.35;8.20;;;27.60;61.20;;;;;;7403514;19;19915;-73
2023/09/10 09:52:56;;;;;;;9.93;8.80;;;27.40;62.00;;;;;;7403153;19;19959;-73
2023/09/10 09:55:22;;;;;;;;;;;27.40;61.90;;;;;;7403979;19;19954;-74
2023/09/10 09:57:49;;;;;;;11.32;7.18;;;27.40;62.10;;;;;;7403082;19;20240;-73
2023/09/10 10:00:16;;;;;;;8.60;7.47;;;27.40;62.60;;;;;;7399848;19;19942;-74
2023/09/10 10:02:44;;;;;;;9.85;7.22;;;27.70;61.50;;;;;;7404473;19;19915;-73
2023/09/10 10:05:11;;;;;;;9.75;7.50;;;27.90;60.50;;;;;;7402553;19;19915;-73
2023/09/10 10:07:40;;;;;;;9.63;7.75;;;27.60;60.70;;;;;;7403096;19;19910;-73
2023/09/10 10:10:15;;;;;;;9.02;7.68;;;27.30;61.70;;;;;;7403139;19;19918;-74
2023/09/10 10:12:44;;;;;;;9.02;7.45;;;27.70;61.30;;;;;;7401541;19;19921;-74
2023/09/10 10:15:12;;;;;;;9.32;7.00;;;27.80;60.70;;;;;;7398093;19;19918;-74
2023/09/10 10:17:42;;;;;;;9.90;8.07;;;27.90;60.20;;;;;;7402584;19;19926;-74
2023/09/10 10:20:09;;;;;;;8.98;7.20;;;27.70;59.10;;;;;;7403340;19;19939;-73
2023/09/10 10:22:37;;;;;;;9.77;6.90;;;27.60;60.40;;;;;;7401400;19;19994;-73
2023/09/10 10:25:06;;;;;;;7.55;6.65;;;28.10;59.60;;;;;;7403682;19;19914;-75
2023/09/10 10:27:35;;;;;;;8.23;6.68;;;28.70;58.10;;;;;;7402030;19;19926;-73
2023/09/10 10:30:03;;;;;;;9.38;6.78;;;29.10;56.50;;;;;;7404345;19;19919;-73
2023/09/10 10:32:38;;;;;;;11.10;7.28;;;29.20;56.20;;;;;;7404217;19;20310;-74
2023/09/10 10:35:09;;;;;;;9.15;7.18;;;29.10;55.40;;;;;;7401056;19;19925;-74
2023/09/10 10:37:57;;;;;;;8.05;6.63;;;28.50;56.30;;;;;;7401551;19;19914;-74
2023/09/10 10:40:37;;;;;;;7.38;6.35;;;28.50;55.90;;;;;;7401055;19;19935;-74
2023/09/10 10:43:13;;;;;;;8.15;5.63;;;29.20;55.30;;;;;;7399653;19;19942;-73
2023/09/10 10:45:39;;;;;;;8.95;7.43;;;29.60;54.20;;;;;;7403743;19;19970;-74
2023/09/10 10:48:18;;;;;;;11.52;6.05;;;29.70;53.90;;;;;;7401177;19;20310;-74
2023/09/10 10:50:46;;;;;;;8.25;4.90;;;30.00;53.70;;;;;;7404219;19;20727;-73
2023/09/10 10:53:17;;;;;;;9.60;7.30;;;30.20;53.30;;;;;;7403011;19;19926;-75
2023/09/10 10:55:44;;;;;;;7.82;7.03;;;30.00;53.00;;;;;;7402010;19;19935;-73
2023/09/10 10:58:10;;;;;;;8.50;7.43;;;29.80;53.30;;;;;;7397722;19;19923;-73
2023/09/10 11:00:36;;;;;;;;;;;29.20;53.60;;;;;;7404222;19;20343;-74
2023/09/10 11:03:15;;;;;;;8.82;7.82;;;28.50;54.90;;;;;;7401938;19;19942;-74
2023/09/10 11:05:54;;;;;;;9.60;8.30;;;29.20;56.00;;;;;;7401423;19;19926;-75
2023/09/10 11:08:27;;;;;;;10.82;8.23;;;29.90;54.50;;;;;;7398352;19;19914;-74
2023/09/10 11:10:53;;;;;;;8.95;8.15;;;30.40;53.50;;;;;;7401274;19;19919;-73
2023/09/10 11:13:19;;;;;;;;;;;30.50;52.20;;;;;;7403467;19;20374;-74
2023/09/10 11:16:03;;;;;;;8.27;7.10;;;30.60;52.70;;;;;;7402829;19;19982;-73
2023/09/10 11:18:35;;;;;;;8.65;7.75;;;31.30;50.60;;;;;;7400374;19;19982;-73
2023/09/10 11:21:11;;;;;;;9.48;8.57;;;31.50;49.90;;;;;;7402966;19;19919;-72
2023/09/10 11:23:39;;;;;;;11.23;10.23;;;32.00;49.40;;;;;;7400609;19;19915;-73
2023/09/10 11:26:14;;;;;;;9.40;8.02;;;32.10;49.00;;;;;;7399863;19;19921;-73
2023/09/10 11:28:44;;;;;;;8.98;8.02;;;31.60;48.20;;;;;;7399628;19;19907;-73
2023/09/10 11:31:31;;;;;;;6.13;5.35;;;31.20;50.00;;;;;;7401347;19;20376;-72
2023/09/10 11:34:23;;;;;;;8.48;7.55;;;31.80;49.80;;;;;;7399097;19;19922;-73
2023/09/10 11:37:00;;;;;;;8.25;7.45;;;32.30;49.10;;;;;;7396971;19;19918;-73
2023/09/10 11:39:26;;;;;;;8.88;7.97;;;32.80;47.70;;;;;;7399391;19;19919;-73
2023/09/10 11:41:54;;;;;;;8.57;7.68;;;31.80;48.30;;;;;;7396741;19;19946;-72
2023/09/10 11:44:20;;;;;;;9.38;8.48;;;32.00;48.20;;;;;;7400118;19;19914;-73
2023/09/10 11:46:46;;;;;;;10.20;8.32;;;31.50;48.90;;;;;;7397691;19;19978;-73
2023/09/10 11:49:13;;;;;;;;;;;31.10;50.40;;;;;;7379448;19;19948;-74
2023/09/10 11:51:46;;;;;;;8.93;8.13;;;30.70;51.30;;;;;;7397535;19;19918;-74
2023/09/10 11:54:16;;;;;;;8.65;7.85;;;30.50;51.40;;;;;;7398384;19;19918;-74
2023/09/10 11:56:53;;;;;;;8.38;7.30;;;30.80;51.10;;;;;;7401041;19;20335;-74
2023/09/10 11:59:25;;;;;;;7.90;7.18;;;31.60;50.10;;;;;;7399177;19;20339;-74
2023/09/10 12:01:55;;;;;;;8.57;7.45;;;31.10;50.90;;;;;;7364857;19;19918;-74
2023/09/10 12:04:29;;;;;;;8.10;7.28;;;31.70;50.40;;;;;;7395700;19;19947;-73
2023/09/10 12:06:55;;;;;;;7.85;7.05;;;32.40;48.10;;;;;;7397817;19;19915;-74
2023/09/10 12:09:20;;;;;;;7.50;6.60;;;32.80;46.90;;;;;;7398216;19;19923;-75
2023/09/10 12:11:48;;;;;;;7.03;6.32;;;33.50;45.80;;;;;;7396380;19;19911;-75
2023/09/10 12:14:13;;;;;;;8.32;6.97;;;34.00;44.30;;;;;;7403209;19;19935;-73
2023/09/10 12:16:39;;;;;;;7.57;6.85;;;34.20;42.70;;;;;;7401942;19;19950;-73
2023/09/10 12:19:06;;;;;;;8.10;7.40;;;34.20;42.50;;;;;;7403490;19;19910;-74
2023/09/10 12:21:32;;;;;;;7.18;6.35;;;34.40;42.50;;;;;;7398498;19;19927;-74
2023/09/10 12:23:58;;;;;;;8.40;7.50;;;34.40;42.10;;;;;;7399931;19;19923;-74
2023/09/10 12:26:24;;;;;;;7.68;7.00;;;33.80;42.10;;;;;;7390377;19;19915;-73
2023/09/10 12:28:50;;;;;;;8.02;6.55;;;34.20;41.40;;;;;;7396194;19;19929;-74
2023/09/10 12:31:16;;;;;;;7.00;6.40;;;34.20;41.10;;;;;;7389160;19;19911;-74
2023/09/10 12:33:42;;;;;;;7.00;6.30;;;34.20;42.20;;;;;;7405747;19;19922;-75
2023/09/10 12:36:07;;;;;;;8.25;7.15;;;34.50;41.60;;;;;;7390748;19;19922;-74
2023/09/10 12:38:33;;;;;;;6.97;6.30;;;34.60;40.20;;;;;;7397671;19;19954;-75
2023/09/10 12:41:00;;;;;;;7.15;6.55;;;34.00;41.00;;;;;;7402728;19;19914;-75
2023/09/10 12:43:27;;;;;;;6.78;6.05;;;34.20;41.50;;;;;;7402518;19;19922;-74
2023/09/10 12:45:52;;;;;;;8.23;7.32;;;34.70;40.60;;;;;;7405339;19;19918;-73